Time;durP1;ratioP1;P1;durP2;ratioP2;P2;SDS_P1;SDS_P2;PMS_P1;PMS_P2;Temp;Humidity;BMP_temperature;BMP_pressure;BME280_temperature;BME280_humidity;BME280_pressure;Samples;Min_cycle;Max_cycle;Signal;HPM_P1;HPM_P2
2022/09/23 00:01:16;;;;;;;3.03;2.15;;;8.80;99.90;;;;;;5058254;28;20036;-47
2022/09/23 00:03:47;;;;;;;2.22;2.03;;;8.80;99.90;;;;;;5066202;28;20038;-47
2022/09/23 00:06:19;;;;;;;1.77;1.27;;;8.80;99.90;;;;;;5058223;28;20043;-47
2022/09/23 00:08:45;;;;;;;2.03;1.52;;;8.70;99.90;;;;;;5058713;28;20520;-46
2022/09/23 00:11:14;;;;;;;1.67;1.58;;;8.70;99.90;;;;;;5064408;28;20067;-46
2022/09/23 00:13:41;;;;;;;1.55;1.45;;;8.70;99.90;;;;;;5058507;28;20032;-47
2022/09/23 00:16:10;;;;;;;1.55;1.25;;;8.70;99.90;;;;;;5065787;28;20051;-46
2022/09/23 00:18:37;;;;;;;2.28;1.63;;;8.70;99.90;;;;;;5034937;28;20116;-47
2022/09/23 00:21:04;;;;;;;1.90;1.50;;;8.70;99.90;;;;;;5066433;28;20036;-49
2022/09/23 00:23:30;;;;;;;1.65;1.35;;;8.60;99.90;;;;;;5057258;28;20040;-47
2022/09/23 00:25:58;;;;;;;2.03;1.92;;;8.60;99.90;;;;;;5059451;28;20037;-46
2022/09/23 00:28:23;;;;;;;2.22;1.65;;;8.60;99.90;;;;;;5063777;28;20466;-46
2022/09/23 00:30:49;;;;;;;1.60;1.50;;;8.60;99.90;;;;;;5039992;28;20033;-50
2022/09/23 00:33:15;;;;;;;1.80;1.40;;;8.60;99.90;;;;;;5065283;28;20175;-50
2022/09/23 00:35:40;;;;;;;2.45;1.52;;;8.60;99.90;;;;;;5058092;28;20025;-46
2022/09/23 00:38:06;;;;;;;2.03;1.40;;;8.60;99.90;;;;;;5066182;28;20028;-47
2022/09/23 00:40:32;;;;;;;3.05;1.83;;;8.60;99.90;;;;;;5057900;28;20028;-46
2022/09/23 00:42:57;;;;;;;2.25;1.50;;;8.60;99.90;;;;;;5058899;28;20100;-48
2022/09/23 00:45:23;;;;;;;2.20;1.60;;;8.60;99.90;;;;;;5063555;28;20442;-46
2022/09/23 00:48:01;;;;;;;2.72;1.58;;;8.50;99.90;;;;;;5057816;28;20032;-48
2022/09/23 00:50:29;;;;;;;4.28;1.55;;;8.50;99.90;;;;;;5063449;28;20031;-45
2022/09/23 00:52:57;;;;;;;2.25;1.30;;;8.50;99.90;;;;;;5038492;28;20067;-47
2022/09/23 00:55:39;;;;;;;2.35;1.48;;;8.50;99.90;;;;;;5061300;28;20240;-47
2022/09/23 00:58:09;;;;;;;1.85;1.65;;;8.40;99.90;;;;;;5059647;28;20021;-47
2022/09/23 01:00:35;;;;;;;1.88;1.52;;;8.40;99.90;;;;;;5059026;28;20081;-46
2022/09/23 01:03:04;;;;;;;3.35;1.60;;;8.40;99.90;;;;;;5040226;28;20033;-49
2022/09/23 01:05:30;;;;;;;1.35;1.25;;;8.40;99.90;;;;;;5060539;28;20581;-46
2022/09/23 01:07:56;;;;;;;3.47;1.85;;;8.40;99.90;;;;;;5059711;28;20043;-46
2022/09/23 01:10:23;;;;;;;4.55;1.77;;;8.30;99.90;;;;;;5060415;28;20052;-53
2022/09/23 01:13:00;;;;;;;2.03;1.40;;;8.30;99.90;;;;;;5082333;22;20050;-55
2022/09/23 01:15:47;;;;;;;;;;;8.30;99.90;;;;;;5055234;28;20294;-54
2022/09/23 01:18:48;;;;;;;1.95;1.20;;;8.30;99.90;;;;;;5065134;28;20337;-52
2022/09/23 01:21:18;;;;;;;1.52;1.40;;;8.30;99.90;;;;;;5052779;28;20367;-56
2022/09/23 01:24:06;;;;;;;3.28;1.60;;;8.30;99.90;;;;;;5062307;28;20139;-55
2022/09/23 01:26:50;;;;;;;2.47;1.33;;;8.20;99.90;;;;;;5050630;28;20541;-52
2022/09/23 01:29:35;;;;;;;1.92;1.10;;;8.20;99.90;;;;;;5064368;28;20443;-57
2022/09/23 01:32:15;;;;;;;2.67;1.52;;;8.20;99.90;;;;;;5061311;28;20017;-52
2022/09/23 01:34:51;;;;;;;2.78;1.58;;;8.20;99.90;;;;;;5070823;28;20020;-58
2022/09/23 01:37:23;;;;;;;3.75;1.77;;;8.20;99.90;;;;;;5066408;28;20100;-55
2022/09/23 01:40:03;;;;;;;2.38;1.30;;;8.20;99.90;;;;;;5073223;28;20066;-57
2022/09/23 01:42:50;;;;;;;3.30;1.40;;;8.20;99.90;;;;;;5065586;28;20139;-52
2022/09/23 01:45:34;;;;;;;1.92;1.50;;;8.20;99.90;;;;;;5061600;28;20055;-54
2022/09/23 01:48:15;;;;;;;1.65;1.35;;;8.20;99.90;;;;;;5065697;28;20028;-53
2022/09/23 01:50:57;;;;;;;1.60;1.30;;;8.20;99.90;;;;;;5072680;28;20513;-54
2022/09/23 01:53:34;;;;;;;2.05;1.30;;;8.20;99.90;;;;;;5059505;28;20104;-56
2022/09/23 01:56:07;;;;;;;2.10;1.27;;;8.20;99.90;;;;;;5071000;28;20025;-55
2022/09/23 01:58:40;;;;;;;1.45;1.17;;;8.20;99.90;;;;;;5069422;28;20367;-52
2022/09/23 02:01:10;;;;;;;3.55;1.40;;;8.20;99.90;;;;;;5072012;28;20029;-56
2022/09/23 02:03:59;;;;;;;1.52;1.40;;;8.20;99.90;;;;;;5070338;28;20115;-56
2022/09/23 02:06:30;;;;;;;2.15;1.52;;;8.20;99.90;;;;;;5062722;28;20048;-55
2022/09/23 02:09:04;;;;;;;1.92;1.52;;;8.10;99.90;;;;;;5065677;28;20040;-53
2022/09/23 02:11:35;;;;;;;1.55;1.45;;;8.10;99.90;;;;;;5068540;28;20029;-52
2022/09/23 02:14:16;;;;;;;1.63;1.38;;;8.10;99.90;;;;;;5071587;28;20074;-56
2022/09/23 02:16:55;;;;;;;7.32;1.55;;;8.10;99.90;;;;;;5070091;28;20050;-53
2022/09/23 02:19:38;;;;;;;1.45;1.35;;;8.10;99.90;;;;;;5062142;28;20009;-52
2022/09/23 02:22:11;;;;;;;1.23;1.13;;;8.00;99.90;;;;;;5073262;28;20266;-53
2022/09/23 02:24:38;;;;;;;3.17;1.50;;;8.00;99.90;;;;;;5068685;28;20017;-52
2022/09/23 02:27:13;;;;;;;2.22;1.05;;;8.00;99.90;;;;;;5066308;28;20233;-52
2022/09/23 02:30:07;;;;;;;1.75;1.65;;;8.00;99.90;;;;;;5069729;28;20110;-55
2022/09/23 02:32:45;;;;;;;1.92;1.50;;;8.00;99.90;;;;;;5057127;28;20054;-54
2022/09/23 02:35:21;;;;;;;2.72;1.58;;;7.90;99.90;;;;;;5070652;28;20016;-57
2022/09/23 02:37:47;;;;;;;;;;;7.90;99.90;;;;;;5063653;28;20017;-56
2022/09/23 02:40:28;;;;;;;3.90;1.10;;;8.00;99.90;;;;;;5054845;28;20415;-57
2022/09/23 02:43:24;;;;;;;2.30;1.60;;;7.90;99.90;;;;;;5063884;28;20052;-54
2022/09/23 02:45:50;;;;;;;1.63;1.42;;;7.90;99.90;;;;;;5068405;28;20025;-52
2022/09/23 02:48:20;;;;;;;2.35;1.58;;;7.90;99.90;;;;;;5065789;28;20020;-52
2022/09/23 02:50:46;;;;;;;3.47;1.67;;;7.90;99.90;;;;;;5049687;28;20093;-51
2022/09/23 02:53:14;;;;;;;2.85;1.40;;;7.90;99.90;;;;;;5056772;28;20017;-52
2022/09/23 02:55:41;;;;;;;2.45;1.38;;;7.90;99.90;;;;;;5059995;28;20104;-53
2022/09/23 02:58:08;;;;;;;2.33;1.50;;;7.90;99.90;;;;;;5064587;28;20025;-56
2022/09/23 03:01:04;;;;;;;5.40;1.23;;;7.80;99.90;;;;;;5049268;28;20123;-54
2022/09/23 03:03:42;;;;;;;2.90;1.60;;;7.90;99.90;;;;;;5053103;28;20409;-53
2022/09/23 03:06:36;;;;;;;1.40;1.30;;;7.80;99.90;;;;;;5067812;28;20140;-56
2022/09/23 03:09:28;;;;;;;1.77;1.52;;;7.80;99.90;;;;;;5066684;28;20025;-52
2022/09/23 03:12:05;;;;;;;1.40;1.30;;;7.80;99.90;;;;;;5068418;28;20036;-52
2022/09/23 03:15:04;;;;;;;1.92;1.65;;;7.80;99.90;;;;;;5062134;28;20024;-57
2022/09/23 03:18:07;;;;;;;1.48;1.13;;;7.70;99.90;;;;;;5059073;28;20032;-57
2022/09/23 03:20:49;;;;;;;2.53;1.65;;;7.70;99.90;;;;;;5054036;28;20035;-55
2022/09/23 03:23:22;;;;;;;1.63;1.50;;;7.70;99.90;;;;;;5068657;28;20130;-52
2022/09/23 03:25:52;;;;;;;1.40;1.23;;;7.70;99.90;;;;;;5048545;28;20032;-56
2022/09/23 03:28:21;;;;;;;3.08;1.40;;;7.70;99.90;;;;;;5062004;28;20035;-57
2022/09/23 03:30:49;;;;;;;2.78;1.50;;;7.70;99.90;;;;;;5066718;28;20052;-58
2022/09/23 03:33:18;;;;;;;1.50;1.40;;;7.70;99.90;;;;;;5060184;28;20008;-55
2022/09/23 03:38:41;;;;;;;1.65;1.55;;;7.70;99.90;;;;;;5054335;28;20028;-53
2022/09/23 03:41:10;;;;;;;1.40;1.30;;;7.70;99.90;;;;;;5067558;28;20060;-54
2022/09/23 03:43:37;;;;;;;2.55;1.55;;;7.70;99.90;;;;;;5060581;28;20033;-55
2022/09/23 03:46:03;;;;;;;1.60;1.20;;;7.70;99.90;;;;;;5067703;28;20500;-54
2022/09/23 03:48:28;;;;;;;2.22;1.52;;;7.80;99.90;;;;;;5063423;28;20029;-56
2022/09/23 03:50:54;;;;;;;1.98;1.25;;;7.80;99.90;;;;;;5067176;28;20056;-55
2022/09/23 03:53:20;;;;;;;3.38;1.42;;;7.80;99.90;;;;;;5065954;28;20077;-52
2022/09/23 03:55:46;;;;;;;6.55;1.42;;;7.80;99.90;;;;;;5059179;28;20615;-55
2022/09/23 03:58:12;;;;;;;3.63;1.67;;;7.80;99.90;;;;;;5049915;28;20034;-55
2022/09/23 04:00:38;;;;;;;7.68;1.85;;;7.80;99.90;;;;;;5060658;28;20029;-53
2022/09/23 04:03:04;;;;;;;4.03;1.33;;;7.90;99.90;;;;;;5068785;28;20021;-52
2022/09/23 04:05:29;;;;;;;1.58;1.48;;;7.90;99.90;;;;;;5065150;28;20478;-57
2022/09/23 04:07:55;;;;;;;1.80;1.45;;;7.90;99.90;;;;;;5059832;28;20174;-54
2022/09/23 04:10:21;;;;;;;3.30;1.50;;;7.90;99.90;;;;;;5067817;28;20105;-54
2022/09/23 04:12:47;;;;;;;1.58;1.30;;;7.90;99.90;;;;;;5059352;28;20033;-52
2022/09/23 04:15:13;;;;;;;2.38;1.38;;;7.90;99.90;;;;;;5068582;28;20020;-52
2022/09/23 04:17:38;;;;;;;1.35;1.25;;;7.90;99.90;;;;;;5062128;28;20021;-53
2022/09/23 04:20:05;;;;;;;2.00;1.15;;;8.00;99.90;;;;;;5050705;28;20033;-53
2022/09/23 04:22:32;;;;;;;1.58;1.30;;;8.00;99.90;;;;;;5064250;28;20043;-53
2022/09/23 04:24:57;;;;;;;1.65;1.55;;;8.00;99.90;;;;;;5060256;28;20035;-55
2022/09/23 04:27:23;;;;;;;2.58;1.83;;;8.00;99.90;;;;;;5067212;28;20017;-53
2022/09/23 04:29:49;;;;;;;3.00;1.33;;;8.00;99.90;;;;;;5041277;28;20067;-56
2022/09/23 04:32:15;;;;;;;1.63;1.35;;;8.00;99.90;;;;;;5068757;28;20027;-52
2022/09/23 04:34:41;;;;;;;1.67;1.40;;;8.10;99.90;;;;;;5061631;28;20430;-55
2022/09/23 04:37:06;;;;;;;4.57;1.83;;;8.10;99.90;;;;;;5068855;28;20024;-55
2022/09/23 04:39:32;;;;;;;1.95;1.60;;;8.10;99.90;;;;;;5064315;28;20040;-56
2022/09/23 04:41:58;;;;;;;3.30;1.25;;;8.10;99.90;;;;;;5059607;28;20104;-53
2022/09/23 04:44:26;;;;;;;2.60;1.65;;;8.10;99.90;;;;;;5066988;28;20386;-56
2022/09/23 04:46:52;;;;;;;1.92;1.60;;;8.10;99.90;;;;;;5041905;28;20032;-54
2022/09/23 04:49:18;;;;;;;1.58;1.35;;;8.10;99.90;;;;;;5068565;28;20028;-52
2022/09/23 04:51:43;;;;;;;3.63;1.67;;;8.10;99.90;;;;;;5060409;28;20048;-55
2022/09/23 04:54:10;;;;;;;1.88;1.33;;;8.10;99.90;;;;;;5068943;28;20020;-51
2022/09/23 04:56:36;;;;;;;3.47;1.60;;;8.10;99.90;;;;;;5063410;28;20017;-52
2022/09/23 04:59:02;;;;;;;1.90;1.75;;;8.10;99.90;;;;;;5023601;28;20387;-55
2022/09/23 05:01:30;;;;;;;1.98;1.50;;;8.10;99.90;;;;;;5057008;28;20380;-53
2022/09/23 05:04:01;;;;;;;1.65;1.52;;;8.10;99.90;;;;;;5065947;28;20403;-52
2022/09/23 05:06:28;;;;;;;11.35;1.58;;;8.10;99.90;;;;;;5064161;28;20063;-53
2022/09/23 05:08:55;;;;;;;3.80;1.40;;;8.10;99.90;;;;;;5059386;28;20367;-51
2022/09/23 05:11:22;;;;;;;3.40;1.35;;;8.10;99.90;;;;;;5064560;28;20032;-56
2022/09/23 05:13:49;;;;;;;1.98;1.77;;;8.10;99.90;;;;;;5061802;28;20024;-56
2022/09/23 05:16:15;;;;;;;3.28;1.50;;;8.10;99.90;;;;;;5050137;28;20024;-51
2022/09/23 05:18:42;;;;;;;1.98;1.80;;;8.10;99.90;;;;;;5063643;28;20029;-52
2022/09/23 05:21:10;;;;;;;1.40;1.30;;;8.10;99.90;;;;;;5066316;28;20025;-54
2022/09/23 05:23:36;;;;;;;4.40;1.67;;;8.10;99.90;;;;;;5064096;28;20449;-56
2022/09/23 05:26:07;;;;;;;1.67;1.50;;;8.10;99.90;;;;;;5059722;28;20400;-55
2022/09/23 05:28:33;;;;;;;5.95;2.22;;;8.10;99.90;;;;;;5064896;28;20024;-54
2022/09/23 05:31:13;;;;;;;2.38;1.70;;;8.10;99.90;;;;;;5061432;28;20031;-52
2022/09/23 05:33:40;;;;;;;1.80;1.67;;;8.10;99.90;;;;;;5065819;28;20027;-54
2022/09/23 05:36:06;;;;;;;2.33;1.67;;;8.20;99.90;;;;;;5062943;28;20020;-55
2022/09/23 05:38:32;;;;;;;6.07;1.85;;;8.20;99.90;;;;;;5066428;28;20020;-55
2022/09/23 05:41:00;;;;;;;2.00;1.80;;;8.20;99.90;;;;;;5045438;28;20040;-58
2022/09/23 05:43:25;;;;;;;2.70;1.45;;;8.20;99.90;;;;;;5060534;28;20251;-56
2022/09/23 05:45:59;;;;;;;3.67;2.10;;;8.20;99.90;;;;;;5064806;28;20410;-53
2022/09/23 05:48:25;;;;;;;2.13;1.90;;;8.20;99.90;;;;;;5061239;28;20451;-58
2022/09/23 05:50:51;;;;;;;1.98;1.50;;;8.20;99.90;;;;;;5065441;28;20054;-55
2022/09/23 05:53:17;;;;;;;3.65;1.63;;;8.20;99.90;;;;;;5062809;28;20021;-58
2022/09/23 05:55:44;;;;;;;1.77;1.67;;;8.30;99.90;;;;;;5048578;28;20149;-54
2022/09/23 05:58:10;;;;;;;1.52;1.42;;;8.30;99.90;;;;;;5061687;28;20021;-52
2022/09/23 06:00:41;;;;;;;1.75;1.50;;;8.30;99.90;;;;;;5057918;28;20033;-53
2022/09/23 06:03:18;;;;;;;2.40;1.70;;;8.30;99.90;;;;;;5067111;28;20525;-53
2022/09/23 06:05:45;;;;;;;2.45;1.73;;;8.40;99.90;;;;;;5061791;28;20029;-53
2022/09/23 06:08:11;;;;;;;3.47;2.08;;;8.40;99.90;;;;;;5060922;28;20082;-56
2022/09/23 06:10:38;;;;;;;1.67;1.58;;;8.40;99.90;;;;;;5064494;28;20413;-53
2022/09/23 06:13:04;;;;;;;3.53;1.73;;;8.40;99.90;;;;;;5060270;28;20132;-56
2022/09/23 06:15:30;;;;;;;2.50;2.20;;;8.40;99.90;;;;;;5066750;28;20016;-55
2022/09/23 06:17:56;;;;;;;5.22;2.03;;;8.40;99.90;;;;;;5060286;28;20100;-54
2022/09/23 06:20:21;;;;;;;2.63;1.85;;;8.40;99.90;;;;;;5069302;28;20032;-55
2022/09/23 06:22:47;;;;;;;2.22;2.03;;;8.50;99.90;;;;;;5064638;28;20032;-54
2022/09/23 06:25:12;;;;;;;2.85;2.10;;;8.50;99.90;;;;;;5064927;28;20504;-53
2022/09/23 06:27:38;;;;;;;2.05;1.85;;;8.50;99.90;;;;;;5067844;28;20029;-54
2022/09/23 06:30:05;;;;;;;4.80;1.85;;;8.50;99.90;;;;;;5064430;28;20056;-57
2022/09/23 06:32:31;;;;;;;4.50;2.13;;;8.50;99.90;;;;;;5070213;28;20374;-52
2022/09/23 06:34:57;;;;;;;2.17;1.60;;;8.60;99.90;;;;;;5046237;28;20120;-51
2022/09/23 06:37:23;;;;;;;2.17;1.70;;;8.50;99.90;;;;;;5072232;28;20020;-53
2022/09/23 06:39:49;;;;;;;2.20;1.95;;;8.60;99.90;;;;;;5064581;28;20100;-55
2022/09/23 06:42:15;;;;;;;2.63;1.73;;;8.60;99.90;;;;;;5064265;28;20372;-55
2022/09/23 06:44:41;;;;;;;3.35;2.40;;;8.60;99.90;;;;;;5049392;28;20017;-51
2022/09/23 06:47:07;;;;;;;2.47;2.20;;;8.60;99.90;;;;;;5064596;28;20029;-55
2022/09/23 06:49:32;;;;;;;3.20;1.98;;;8.70;99.90;;;;;;5070021;28;20024;-53
2022/09/23 06:51:58;;;;;;;2.72;2.10;;;8.70;99.90;;;;;;5063975;28;20025;-56
2022/09/23 06:54:27;;;;;;;2.75;2.17;;;8.70;99.90;;;;;;5072090;28;20035;-52
2022/09/23 06:56:53;;;;;;;2.47;1.90;;;8.70;99.90;;;;;;5064116;28;20017;-55
2022/09/23 06:59:18;;;;;;;2.63;1.98;;;8.70;99.90;;;;;;5064912;28;20017;-58
2022/09/23 07:01:46;;;;;;;3.10;1.90;;;8.70;99.90;;;;;;5063960;28;20016;-55
2022/09/23 07:04:12;;;;;;;4.50;1.98;;;8.80;99.90;;;;;;5068359;28;20016;-57
2022/09/23 07:06:37;;;;;;;2.33;1.88;;;8.80;99.90;;;;;;5066787;28;20032;-51
2022/09/23 07:09:05;;;;;;;3.75;2.10;;;8.80;99.90;;;;;;5062057;28;20226;-55
2022/09/23 07:11:30;;;;;;;2.58;2.08;;;8.90;99.90;;;;;;5066613;28;20032;-59
2022/09/23 07:13:56;;;;;;;3.33;2.20;;;8.90;99.90;;;;;;5065805;22;20048;-45
2022/09/23 07:16:21;;;;;;;2.20;2.05;;;9.00;99.90;;;;;;5047809;28;20045;-51
2022/09/23 07:18:47;;;;;;;2.05;1.95;;;9.10;99.90;;;;;;5045602;28;20067;-47
2022/09/23 07:21:15;;;;;;;4.85;2.50;;;9.10;99.90;;;;;;5048337;28;20472;-45
2022/09/23 07:23:46;;;;;;;6.07;2.00;;;9.30;99.90;;;;;;5046265;28;20041;-49
2022/09/23 07:26:13;;;;;;;4.38;2.15;;;9.40;99.90;;;;;;5041997;28;20031;-47
2022/09/23 07:28:39;;;;;;;4.32;2.35;;;9.50;99.90;;;;;;5046964;28;20501;-48
2022/09/23 07:31:07;;;;;;;4.78;2.60;;;9.70;99.90;;;;;;5042635;28;20029;-46
2022/09/23 07:33:35;;;;;;;2.50;2.28;;;9.80;99.90;;;;;;5047909;28;20025;-48
2022/09/23 07:36:09;;;;;;;3.70;2.40;;;9.90;99.90;;;;;;5045089;28;20017;-47
2022/09/23 07:38:35;;;;;;;3.45;2.42;;;10.10;99.90;;;;;;5048559;28;20108;-49
2022/09/23 07:41:07;;;;;;;3.22;2.10;;;10.20;99.90;;;;;;5045047;28;20028;-45
2022/09/23 07:43:34;;;;;;;5.03;2.03;;;10.30;99.90;;;;;;5043689;28;20397;-47
2022/09/23 07:46:07;;;;;;;3.80;2.15;;;10.50;99.90;;;;;;5046869;28;20444;-47
2022/09/23 07:48:33;;;;;;;3.38;2.47;;;10.60;99.90;;;;;;5038828;28;20033;-48
2022/09/23 07:50:59;;;;;;;3.78;2.00;;;10.80;99.90;;;;;;5029577;28;20043;-46
2022/09/23 07:53:25;;;;;;;6.25;2.30;;;11.00;99.90;;;;;;5027136;28;20450;-45
2022/09/23 07:55:55;;;;;;;12.10;3.35;;;11.10;99.90;;;;;;5030231;28;20029;-45
2022/09/23 07:58:22;;;;;;;4.10;2.03;;;11.20;99.90;;;;;;5042124;28;20026;-46
2022/09/23 08:00:52;;;;;;;4.07;2.40;;;11.30;99.90;;;;;;5039663;28;20064;-45
2022/09/23 08:03:18;;;;;;;3.40;1.67;;;11.40;99.90;;;;;;5017866;28;20082;-45
2022/09/23 08:05:45;;;;;;;3.05;2.42;;;11.40;99.90;;;;;;5043604;28;20025;-45
2022/09/23 08:08:12;;;;;;;3.00;2.05;;;11.60;99.90;;;;;;5042364;28;20058;-50
2022/09/23 08:10:38;;;;;;;3.22;2.00;;;11.70;99.90;;;;;;5045732;28;20167;-46
2022/09/23 08:13:04;;;;;;;6.15;2.17;;;11.80;99.90;;;;;;5041801;28;20116;-46
2022/09/23 08:15:30;;;;;;;3.47;1.95;;;11.90;99.90;;;;;;5048703;28;20032;-46
2022/09/23 08:17:59;;;;;;;2.38;1.73;;;12.00;99.90;;;;;;5042039;28;20029;-46
2022/09/23 08:20:44;;;;;;;2.63;2.05;;;12.10;99.90;;;;;;5050556;28;20025;-45
2022/09/23 08:23:13;;;;;;;2.15;1.90;;;12.30;99.90;;;;;;5043751;28;20043;-46
2022/09/23 08:25:39;;;;;;;2.45;2.25;;;12.40;99.90;;;;;;5042161;28;20032;-45
2022/09/23 08:28:05;;;;;;;2.10;1.90;;;12.40;99.90;;;;;;5044835;28;20022;-48
2022/09/23 08:30:31;;;;;;;4.60;2.03;;;12.50;99.90;;;;;;5043238;28;20029;-45
2022/09/23 08:32:56;;;;;;;2.92;2.00;;;12.60;99.90;;;;;;5045677;28;20022;-45
2022/09/23 08:35:22;;;;;;;4.93;2.10;;;12.70;99.90;;;;;;5044140;28;20106;-45
2022/09/23 08:37:47;;;;;;;3.45;1.80;;;12.80;99.90;;;;;;5047974;28;20632;-47
2022/09/23 08:40:14;;;;;;;4.25;1.83;;;12.90;99.90;;;;;;5045071;28;20447;-46
2022/09/23 08:42:41;;;;;;;4.65;1.88;;;13.00;99.90;;;;;;5041376;28;20044;-47
2022/09/23 08:45:16;;;;;;;1.58;1.48;;;13.20;99.90;;;;;;5044426;28;20071;-47
2022/09/23 08:47:57;;;;;;;1.92;1.73;;;13.30;99.90;;;;;;5043179;28;20483;-49
2022/09/23 08:50:27;;;;;;;5.07;2.00;;;13.40;99.90;;;;;;5028624;28;20220;-45
2022/09/23 08:52:58;;;;;;;3.38;1.90;;;13.60;99.90;;;;;;5043470;28;20028;-48
2022/09/23 08:55:33;;;;;;;4.25;2.17;;;13.70;99.90;;;;;;5047482;28;20391;-45
2022/09/23 08:58:28;;;;;;;3.30;1.90;;;13.80;99.90;;;;;;5044204;28;20082;-45
2022/09/23 09:01:20;;;;;;;4.00;2.03;;;13.90;99.90;;;;;;5039278;28;20156;-46
2022/09/23 09:03:57;;;;;;;3.83;2.20;;;14.00;99.90;;;;;;5046648;28;20079;-49
2022/09/23 09:06:33;;;;;;;3.78;2.00;;;14.10;99.90;;;;;;5030208;28;20120;-46
2022/09/23 09:09:01;;;;;;;2.40;1.92;;;14.20;99.90;;;;;;5040133;28;20487;-47
2022/09/23 09:11:43;;;;;;;2.08;1.88;;;14.30;99.90;;;;;;5045149;28;20029;-48
2022/09/23 09:14:21;;;;;;;3.72;1.45;;;14.30;99.90;;;;;;5041382;28;20060;-45
2022/09/23 09:16:58;;;;;;;2.88;1.90;;;14.40;99.90;;;;;;5046337;28;20028;-46
2022/09/23 09:19:54;;;;;;;3.97;2.15;;;14.40;99.90;;;;;;5041707;28;20021;-48
2022/09/23 09:22:51;;;;;;;3.53;1.92;;;14.40;99.90;;;;;;5012246;28;20037;-45
2022/09/23 09:25:29;;;;;;;1.90;1.70;;;14.50;99.90;;;;;;5026515;28;20066;-47
2022/09/23 09:27:56;;;;;;;6.45;1.63;;;14.50;99.90;;;;;;5043540;28;20022;-50
2022/09/23 09:30:24;;;;;;;3.65;1.77;;;14.60;99.90;;;;;;5042762;28;20025;-45
2022/09/23 09:33:03;;;;;;;3.90;1.73;;;14.60;99.90;;;;;;5045273;28;20017;-47
2022/09/23 09:36:07;;;;;;;5.35;1.75;;;14.70;99.90;;;;;;5043744;28;20511;-49
2022/09/23 09:38:36;;;;;;;2.47;1.50;;;14.70;99.90;;;;;;5047185;28;20021;-47
2022/09/23 09:41:14;;;;;;;5.72;1.83;;;14.70;99.90;;;;;;5043007;28;20040;-47
2022/09/23 09:43:40;;;;;;;2.33;2.00;;;14.70;99.90;;;;;;5042720;28;20029;-46
2022/09/23 09:46:31;;;;;;;2.00;1.20;;;14.70;99.90;;;;;;5044190;28;20040;-46
2022/09/23 09:49:01;;;;;;;3.78;2.20;;;14.70;99.90;;;;;;5046305;28;20426;-49
2022/09/23 09:51:28;;;;;;;2.05;1.83;;;14.80;99.90;;;;;;5042633;28;20042;-46
2022/09/23 09:54:14;;;;;;;7.63;2.70;;;14.90;99.90;;;;;;5046388;28;20021;-46
2022/09/23 09:56:40;;;;;;;5.25;2.15;;;14.90;99.90;;;;;;5032048;28;20029;-45
2022/09/23 09:59:15;;;;;;;5.45;2.00;;;14.90;99.90;;;;;;5044814;28;20029;-46
2022/09/23 10:01:41;;;;;;;4.13;1.90;;;15.00;99.90;;;;;;5045263;28;20106;-46
2022/09/23 10:04:32;;;;;;;5.47;1.65;;;15.00;99.90;;;;;;5049542;28;20061;-46
2022/09/23 10:07:12;;;;;;;2.75;1.70;;;15.00;99.90;;;;;;5046587;28;20235;-45
2022/09/23 10:09:39;;;;;;;3.15;1.77;;;15.00;99.90;;;;;;5046553;28;20036;-45
2022/09/23 10:12:17;;;;;;;3.53;1.70;;;15.00;99.90;;;;;;5047539;28;20021;-50
2022/09/23 10:14:43;;;;;;;1.52;1.25;;;15.00;99.90;;;;;;5047646;28;20044;-48
2022/09/23 10:17:34;;;;;;;2.70;1.75;;;15.00;99.90;;;;;;5048932;28;20017;-48
2022/09/23 10:20:05;;;;;;;2.20;1.35;;;15.00;99.90;;;;;;5033126;28;20443;-45
2022/09/23 10:22:35;;;;;;;2.35;1.42;;;15.00;99.90;;;;;;5046843;28;20029;-46
2022/09/23 10:25:07;;;;;;;2.45;1.70;;;15.10;99.90;;;;;;5043384;28;20030;-48
2022/09/23 10:27:35;;;;;;;1.60;1.48;;;15.20;99.90;;;;;;5030740;28;20029;-51
2022/09/23 10:30:20;;;;;;;2.92;1.73;;;15.30;99.90;;;;;;5043505;28;20116;-47
2022/09/23 10:32:47;;;;;;;4.80;1.70;;;15.30;99.90;;;;;;5048402;28;20017;-45
2022/09/23 10:35:23;;;;;;;2.03;1.67;;;15.40;99.90;;;;;;5028948;28;20044;-48
2022/09/23 10:37:50;;;;;;;2.38;1.88;;;15.50;99.90;;;;;;5049721;28;20078;-47
2022/09/23 10:49:08;;;;;;;2.20;1.63;;;16.00;99.90;;;;;;5043663;28;20390;-48
2022/09/23 10:52:01;;;;;;;4.38;1.88;;;16.00;99.90;;;;;;5040402;28;20017;-45
2022/09/23 10:54:49;;;;;;;1.92;1.30;;;16.20;99.90;;;;;;5039472;28;20424;-45
2022/09/23 10:57:40;;;;;;;5.30;1.83;;;16.20;99.90;;;;;;5031035;28;20021;-45
2022/09/23 11:00:22;;;;;;;3.05;1.80;;;16.20;99.90;;;;;;5042678;28;20014;-49
2022/09/23 11:03:19;;;;;;;2.78;1.90;;;16.30;99.90;;;;;;5047886;28;20025;-45
2022/09/23 11:05:47;;;;;;;3.55;1.63;;;16.30;99.90;;;;;;5041266;28;20021;-46
2022/09/23 11:08:22;;;;;;;3.80;1.60;;;16.30;99.90;;;;;;5044124;28;20048;-48
2022/09/23 11:10:57;;;;;;;2.28;1.55;;;16.30;99.90;;;;;;5046203;28;20032;-51
2022/09/23 11:13:28;;;;;;;2.03;1.60;;;16.30;99.90;;;;;;5030438;28;20021;-48
2022/09/23 11:16:02;;;;;;;1.55;1.20;;;16.40;99.90;;;;;;5046974;28;20028;-52
2022/09/23 11:18:43;;;;;;;2.53;1.52;;;16.40;99.90;;;;;;5045664;28;20104;-48
2022/09/23 11:21:34;;;;;;;2.17;1.98;;;16.50;99.90;;;;;;5030993;28;20025;-53
2022/09/23 11:24:05;;;;;;;1.40;1.30;;;16.50;99.90;;;;;;5045524;28;20035;-46
2022/09/23 11:26:55;;;;;;;1.88;1.30;;;16.50;99.90;;;;;;5043839;28;20025;-47
2022/09/23 11:29:45;;;;;;;3.20;1.48;;;16.50;99.90;;;;;;5037849;28;20057;-48
2022/09/23 11:32:29;;;;;;;4.18;1.50;;;16.50;99.90;;;;;;5049725;28;20021;-50
2022/09/23 11:35:40;;;;;;;2.15;1.40;;;16.60;99.90;;;;;;5040391;28;20030;-50
2022/09/23 11:38:24;;;;;;;2.03;1.00;;;16.60;99.90;;;;;;5031637;28;20029;-48
2022/09/23 11:40:55;;;;;;;4.15;1.70;;;16.60;99.90;;;;;;5046625;28;20029;-47
2022/09/23 11:43:28;;;;;;;4.85;1.40;;;16.60;99.90;;;;;;5034862;28;20013;-48
2022/09/23 11:46:13;;;;;;;2.70;1.40;;;16.60;99.90;;;;;;5046955;28;20036;-50
2022/09/23 11:48:49;;;;;;;3.45;1.40;;;16.60;99.90;;;;;;5040673;28;20116;-45
2022/09/23 11:51:22;;;;;;;1.88;1.70;;;16.60;99.90;;;;;;5036815;28;20024;-48
2022/09/23 11:54:00;;;;;;;1.83;1.27;;;16.60;99.90;;;;;;5030413;28;20017;-46
2022/09/23 11:56:52;;;;;;;1.45;1.35;;;16.50;99.90;;;;;;5038528;28;20017;-49
2022/09/23 11:59:30;;;;;;;2.35;1.08;;;16.60;99.90;;;;;;5028333;28;20365;-50
2022/09/23 12:02:05;;;;;;;1.75;1.20;;;16.60;99.90;;;;;;5042572;28;20100;-50
2022/09/23 12:04:44;;;;;;;1.77;1.10;;;16.60;99.90;;;;;;5047974;28;20021;-48
2022/09/23 12:07:21;;;;;;;3.53;1.17;;;16.60;99.90;;;;;;5043102;28;20025;-50
2022/09/23 12:10:06;;;;;;;3.55;1.70;;;16.70;99.90;;;;;;5045098;28;20486;-47
2022/09/23 12:13:09;;;;;;;5.60;1.80;;;16.70;99.90;;;;;;5038177;28;20037;-48
2022/09/23 12:16:14;;;;;;;1.30;1.20;;;16.80;99.90;;;;;;5039287;28;20480;-51
2022/09/23 12:18:54;;;;;;;2.05;1.08;;;16.80;99.90;;;;;;5027501;28;20037;-47
2022/09/23 12:21:40;;;;;;;1.33;1.08;;;16.90;99.90;;;;;;5032535;28;20622;-50
2022/09/23 12:24:36;;;;;;;4.03;1.33;;;17.00;99.90;;;;;;5043827;28;20056;-48
2022/09/23 12:27:09;;;;;;;2.13;1.23;;;17.00;99.90;;;;;;5046949;28;20029;-52
2022/09/23 12:29:37;;;;;;;2.15;0.95;;;17.10;99.90;;;;;;5040884;28;20033;-47
2022/09/23 12:32:08;;;;;;;1.73;1.15;;;17.20;99.90;;;;;;5047532;28;20044;-50
2022/09/23 12:34:43;;;;;;;1.85;1.15;;;17.20;99.90;;;;;;5026016;28;20036;-46
2022/09/23 12:37:08;;;;;;;1.10;0.85;;;17.30;99.90;;;;;;5049676;28;20523;-50
2022/09/23 12:39:37;;;;;;;2.10;1.00;;;17.30;99.90;;;;;;5043869;28;20093;-49
2022/09/23 12:42:09;;;;;;;1.20;1.10;;;17.40;99.90;;;;;;5040569;28;20452;-50
2022/09/23 12:44:40;;;;;;;0.90;0.90;;;17.40;99.90;;;;;;5045933;28;20104;-48
2022/09/23 12:47:23;;;;;;;0.68;0.68;;;17.40;99.90;;;;;;5042742;28;20025;-50
2022/09/23 12:49:51;;;;;;;2.15;0.93;;;17.50;99.90;;;;;;5045498;28;20029;-49
2022/09/23 12:52:16;;;;;;;2.25;0.90;;;17.50;99.90;;;;;;5043733;28;20032;-49
2022/09/23 12:54:47;;;;;;;4.15;1.30;;;17.50;99.80;;;;;;5048334;28;20025;-49
2022/09/23 12:57:32;;;;;;;1.95;1.00;;;17.50;99.90;;;;;;5044888;28;20018;-47
2022/09/23 13:00:11;;;;;;;1.13;1.03;;;17.60;99.90;;;;;;5040413;28;20510;-45
2022/09/23 13:02:46;;;;;;;4.85;0.88;;;17.60;99.90;;;;;;5039043;28;20021;-49
2022/09/23 13:08:14;;;;;;;2.75;1.20;;;17.60;98.50;;;;;;5041035;28;20047;-49
2022/09/23 13:10:47;;;;;;;0.73;0.68;;;17.50;98.20;;;;;;5045043;28;20033;-47
2022/09/23 13:13:24;;;;;;;1.48;0.60;;;17.50;98.70;;;;;;5203965;22;20045;-54
2022/09/23 13:15:52;;;;;;;1.30;1.00;;;17.50;99.20;;;;;;5059051;28;20472;-54
2022/09/23 13:18:17;;;;;;;1.63;0.80;;;17.50;99.40;;;;;;5061108;28;20244;-55
2022/09/23 13:20:45;;;;;;;0.90;0.90;;;17.60;99.20;;;;;;5061735;28;20106;-52
2022/09/23 13:23:25;;;;;;;1.00;0.80;;;17.60;98.30;;;;;;5060325;28;20052;-58
2022/09/23 13:25:54;;;;;;;1.55;0.90;;;17.60;98.70;;;;;;5059378;28;20040;-54
2022/09/23 13:28:38;;;;;;;1.00;0.82;;;17.60;98.50;;;;;;5043639;28;20025;-56
2022/09/23 13:31:12;;;;;;;2.00;0.68;;;17.60;98.50;;;;;;5059357;28;20074;-53
2022/09/23 13:33:53;;;;;;;1.17;0.95;;;17.60;98.80;;;;;;5061067;28;20036;-57
2022/09/23 13:36:18;;;;;;;1.10;0.90;;;17.60;98.60;;;;;;5060111;28;20132;-56